Time;durP1;ratioP1;P1;durP2;ratioP2;P2;SDS_P1;SDS_P2;PMS_P1;PMS_P2;Temp;Humidity;BMP_temperature;BMP_pressure;BME280_temperature;BME280_humidity;BME280_pressure;Samples;Min_cycle;Max_cycle;Signal;HPM_P1;HPM_P2
2022/06/30 00:03:02;;;;;;;16.03;14.60;;;19.10;99.90;;;;;;2622735;54;20142;-84
2022/06/30 00:08:52;;;;;;;14.83;13.53;;;19.10;99.90;;;;;;2623122;54;20398;-82
2022/06/30 00:14:40;;;;;;;17.40;15.80;;;19.10;99.90;;;;;;2622866;54;20398;-82
2022/06/30 00:20:28;;;;;;;16.70;15.20;;;19.00;99.90;;;;;;2621245;54;20141;-81
2022/06/30 00:26:16;;;;;;;16.93;15.43;;;18.90;99.90;;;;;;2621488;54;20625;-82
2022/06/30 00:32:04;;;;;;;17.23;15.47;;;18.80;99.90;;;;;;2621497;54;20250;-83
2022/06/30 00:37:51;;;;;;;17.80;16.20;;;18.80;99.90;;;;;;2620392;54;20514;-82
2022/06/30 00:47:18;;;;;;;18.00;16.43;;;18.80;99.90;;;;;;2619808;54;20413;-82
2022/06/30 00:53:07;;;;;;;19.20;17.50;;;18.70;99.90;;;;;;2618159;54;20413;-82
2022/06/30 00:59:01;;;;;;;18.87;16.63;;;18.50;99.90;;;;;;2619393;54;21006;-80
2022/06/30 01:04:51;;;;;;;16.60;15.03;;;18.50;99.90;;;;;;2620404;54;20407;-82
2022/06/30 01:14:01;;;;;;;17.40;15.90;;;18.40;99.90;;;;;;2620126;54;20893;-83
2022/06/30 01:19:56;;;;;;;17.23;15.23;;;18.40;99.90;;;;;;2620086;54;20387;-81
2022/06/30 01:25:46;;;;;;;17.43;15.83;;;18.30;99.90;;;;;;2619182;47;20421;-82
2022/06/30 01:31:33;;;;;;;18.93;17.23;;;18.20;99.90;;;;;;2620323;54;20435;-82
2022/06/30 01:37:21;;;;;;;17.80;16.23;;;18.20;99.90;;;;;;2621770;54;20209;-80
2022/06/30 01:43:11;;;;;;;20.07;18.03;;;18.00;99.90;;;;;;2622296;54;20141;-82
2022/06/30 01:48:59;;;;;;;16.77;15.27;;;18.00;99.90;;;;;;2638747;36;20456;-82
2022/06/30 01:54:47;;;;;;;19.13;17.20;;;18.10;99.90;;;;;;2621017;54;20179;-81
2022/06/30 02:00:34;;;;;;;17.93;16.20;;;17.90;99.90;;;;;;2621287;54;20140;-82
2022/06/30 02:06:22;;;;;;;18.80;17.20;;;17.70;99.90;;;;;;2622331;54;20654;-81
2022/06/30 02:18:18;;;;;;;16.90;15.40;;;17.70;99.90;;;;;;2622476;54;20398;-82
2022/06/30 02:24:06;;;;;;;18.87;17.17;;;17.60;99.90;;;;;;2623198;46;20166;-81
2022/06/30 02:29:53;;;;;;;19.83;17.93;;;17.60;99.90;;;;;;2620480;54;20154;-84
2022/06/30 02:35:40;;;;;;;19.80;18.10;;;17.50;99.90;;;;;;2620009;54;20129;-85
2022/06/30 02:44:49;;;;;;;20.30;18.30;;;17.40;99.90;;;;;;2623224;54;20468;-85
2022/06/30 02:50:37;;;;;;;19.93;18.03;;;17.10;99.90;;;;;;2625372;39;20854;-81
2022/06/30 02:56:25;;;;;;;19.30;17.40;;;17.20;99.90;;;;;;2625236;54;20150;-83
2022/06/30 03:02:13;;;;;;;19.60;17.70;;;17.10;99.90;;;;;;2628261;46;20839;-84
2022/06/30 03:08:01;;;;;;;20.17;18.07;;;17.20;99.90;;;;;;2626985;54;20394;-80
2022/06/30 03:13:48;;;;;;;19.63;17.63;;;17.00;99.90;;;;;;2626169;54;20135;-83
2022/06/30 03:16:52;;;;;;;23.53;19.00;;;17.00;99.90;;;;;;2626244;47;20446;-84
2022/06/30 03:29:43;;;;;;;20.57;18.53;;;16.90;99.90;;;;;;2626663;54;20427;-81
2022/06/30 03:35:31;;;;;;;18.80;16.97;;;17.00;99.90;;;;;;2626900;54;20129;-80
2022/06/30 03:41:18;;;;;;;20.23;18.33;;;17.00;99.90;;;;;;2626403;54;20217;-81
2022/06/30 03:50:28;;;;;;;20.17;18.20;;;17.10;99.90;;;;;;2626162;54;20455;-83
2022/06/30 03:56:16;;;;;;;21.70;19.20;;;17.10;99.90;;;;;;2626442;54;20382;-84
2022/06/30 04:02:05;;;;;;;21.37;19.27;;;17.20;99.90;;;;;;2626656;54;20146;-83
2022/06/30 04:07:52;;;;;;;22.03;19.87;;;17.20;99.90;;;;;;2627139;54;20381;-83
2022/06/30 04:17:01;;;;;;;21.93;19.83;;;17.50;99.90;;;;;;2627106;54;20470;-84
2022/06/30 04:22:50;;;;;;;22.47;19.83;;;17.60;99.90;;;;;;2626657;54;20379;-82
2022/06/30 04:28:38;;;;;;;22.73;20.50;;;17.90;99.90;;;;;;2626309;54;20402;-82
2022/06/30 04:37:47;;;;;;;23.20;20.90;;;18.10;99.90;;;;;;2626799;54;20403;-82
2022/06/30 04:43:35;;;;;;;29.37;26.37;;;18.50;99.90;;;;;;2626208;54;20153;-83
2022/06/30 04:49:22;;;;;;;25.77;22.97;;;19.10;99.90;;;;;;2626659;54;20139;-83
2022/06/30 04:55:10;;;;;;;23.57;21.23;;;20.00;99.90;;;;;;2627763;54;20158;-83
2022/06/30 05:00:59;;;;;;;23.00;20.63;;;21.10;99.90;;;;;;2627425;54;20212;-83
2022/06/30 05:06:47;;;;;;;22.03;19.63;;;22.20;99.90;;;;;;2627756;54;20435;-83
2022/06/30 05:12:35;;;;;;;18.70;17.07;;;23.10;99.90;;;;;;2627562;54;20222;-82
2022/06/30 05:18:26;;;;;;;20.03;18.13;;;23.40;99.90;;;;;;2627367;54;20167;-82
2022/06/30 05:30:23;;;;;;;20.63;18.73;;;24.10;99.90;;;;;;2627145;54;20415;-83
2022/06/30 05:36:12;;;;;;;21.17;19.33;;;24.40;99.90;;;;;;2626191;54;20391;-83
2022/06/30 05:47:51;;;;;;;18.50;16.80;;;25.80;70.00;;;;;;2615848;46;20410;-74
2022/06/30 05:53:39;;;;;;;18.97;15.70;;;26.10;68.90;;;;;;2615881;54;20370;-74
2022/06/30 05:59:26;;;;;;;17.20;15.63;;;26.70;50.40;;;;;;2613471;54;20205;-74
2022/06/30 06:05:14;;;;;;;15.10;13.90;;;27.30;43.40;;;;;;2609254;54;20254;-73
2022/06/30 06:11:02;;;;;;;14.10;13.00;;;27.20;42.50;;;;;;2613974;39;20542;-73
2022/06/30 06:16:50;;;;;;;15.80;14.20;;;27.30;41.60;;;;;;2614337;54;20129;-77
2022/06/30 06:22:38;;;;;;;13.87;12.77;;;27.60;37.40;;;;;;2614332;54;20496;-73
2022/06/30 06:34:32;;;;;;;14.10;12.90;;;28.10;27.80;;;;;;2615504;54;20410;-73
2022/06/30 06:40:20;;;;;;;13.40;12.27;;;28.70;23.00;;;;;;2614304;54;20124;-75
2022/06/30 06:46:07;;;;;;;12.73;11.73;;;28.20;25.20;;;;;;2615321;54;20134;-74
2022/06/30 06:51:55;;;;;;;11.90;10.90;;;29.20;15.20;;;;;;2614973;54;20145;-74
2022/06/30 06:57:43;;;;;;;12.23;11.03;;;28.80;17.70;;;;;;2615709;54;20165;-74
2022/06/30 07:03:32;;;;;;;11.60;10.80;;;30.20;8.90;;;;;;2614877;54;20390;-73
2022/06/30 07:09:19;;;;;;;10.03;9.33;;;30.00;4.30;;;;;;2614531;46;20417;-74
2022/06/30 07:15:08;;;;;;;9.27;8.47;;;29.60;3.20;;;;;;2615224;54;20351;-74
2022/06/30 07:20:55;;;;;;;9.37;8.67;;;29.70;1.50;;;;;;2614903;54;20408;-74
2022/06/30 07:26:43;;;;;;;9.07;8.37;;;30.20;1.00;;;;;;2615472;54;20169;-74
2022/06/30 07:32:31;;;;;;;7.60;7.10;;;30.50;1.00;;;;;;2615432;54;20149;-73
2022/06/30 07:38:19;;;;;;;8.00;7.30;;;30.20;1.00;;;;;;2616112;54;20209;-75
2022/06/30 07:47:29;;;;;;;8.30;7.60;;;30.70;1.00;;;;;;2613917;54;21166;-75
2022/06/30 07:53:16;;;;;;;8.63;8.00;;;31.70;1.00;;;;;;2614938;46;20808;-74
2022/06/30 07:59:04;;;;;;;9.03;7.43;;;31.40;1.00;;;;;;2615355;54;20132;-74
2022/06/30 08:04:52;;;;;;;7.50;6.80;;;31.20;1.00;;;;;;2614640;54;20150;-72
2022/06/30 08:10:40;;;;;;;6.60;6.20;;;31.30;1.00;;;;;;2615001;54;20127;-74
2022/06/30 08:16:27;;;;;;;8.70;7.10;;;31.70;1.00;;;;;;2614662;54;20163;-73
2022/06/30 08:22:15;;;;;;;8.40;7.70;;;31.80;1.00;;;;;;2614783;54;20173;-73
2022/06/30 08:28:05;;;;;;;7.10;6.60;;;31.50;1.00;;;;;;2615150;54;20151;-74
2022/06/30 08:33:54;;;;;;;9.33;7.33;;;31.30;1.00;;;;;;2614479;54;20392;-74
2022/06/30 08:45:54;;;;;;;7.80;7.00;;;31.50;1.00;;;;;;2611209;54;20437;-74
2022/06/30 08:51:45;;;;;;;9.00;8.20;;;31.70;1.00;;;;;;2614050;54;20979;-73
2022/06/30 08:57:32;;;;;;;7.20;6.70;;;31.80;1.00;;;;;;2613632;54;20380;-74
2022/06/30 09:03:19;;;;;;;8.30;6.80;;;32.20;1.00;;;;;;2612766;54;20973;-73
2022/06/30 09:09:06;;;;;;;7.60;6.90;;;31.80;1.00;;;;;;2613386;39;20552;-75
2022/06/30 09:14:54;;;;;;;8.23;7.60;;;32.10;1.00;;;;;;2612964;54;20145;-75
2022/06/30 09:20:42;;;;;;;8.27;7.50;;;32.50;1.00;;;;;;2613238;54;20507;-74
2022/06/30 09:26:29;;;;;;;8.33;7.37;;;32.20;1.00;;;;;;2615203;54;20685;-74
2022/06/30 09:32:18;;;;;;;7.00;6.40;;;32.60;1.00;;;;;;2614026;54;20128;-74
2022/06/30 09:38:08;;;;;;;7.97;7.20;;;32.80;1.00;;;;;;2614951;54;20973;-75
2022/06/30 09:54:09;;;;;;;8.20;7.40;;;33.10;1.00;;;;;;2611601;54;20414;-75
2022/06/30 10:00:00;;;;;;;7.70;7.10;;;33.30;1.00;;;;;;2613205;54;20518;-76
2022/06/30 10:05:49;;;;;;;8.83;8.00;;;33.60;1.00;;;;;;2612923;54;20812;-75
2022/06/30 10:11:36;;;;;;;8.07;7.30;;;33.70;1.00;;;;;;2613222;54;20395;-75
2022/06/30 10:17:30;;;;;;;8.27;7.47;;;34.40;1.00;;;;;;2612125;46;20159;-74
2022/06/30 10:23:21;;;;;;;5.83;5.33;;;34.00;1.00;;;;;;2613565;54;20941;-75
2022/06/30 10:29:10;;;;;;;7.20;6.20;;;33.60;1.00;;;;;;2614861;54;20458;-75
2022/06/30 10:35:35;;;;;;;7.40;6.80;;;33.50;1.00;;;;;;2615846;54;20386;-75
2022/06/30 10:41:24;;;;;;;7.20;6.70;;;33.10;1.00;;;;;;2614058;54;20418;-75
2022/06/30 10:47:11;;;;;;;6.70;6.30;;;34.00;1.00;;;;;;2614728;54;20378;-76
2022/06/30 10:53:00;;;;;;;7.10;6.40;;;33.60;1.00;;;;;;2614690;39;20239;-74
2022/06/30 11:09:38;;;;;;;6.53;6.13;;;33.70;1.00;;;;;;2614739;54;20956;-75
2022/06/30 11:32:26;;;;;;;11.20;5.77;;;34.30;1.00;;;;;;2613550;54;20399;-77
2022/06/30 11:38:14;;;;;;;6.73;6.33;;;33.30;1.00;;;;;;2613488;54;20415;-75
2022/06/30 11:47:23;;;;;;;7.93;6.00;;;33.00;1.00;;;;;;2613328;54;20409;-76
2022/06/30 11:53:11;;;;;;;6.77;6.27;;;32.90;1.00;;;;;;2613309;54;20952;-75
2022/06/30 12:05:43;;;;;;;5.90;5.43;;;32.20;1.00;;;;;;2613711;54;20409;-75
2022/06/30 12:11:30;;;;;;;7.03;6.33;;;32.70;1.00;;;;;;2613426;54;20140;-75
2022/06/30 12:17:18;;;;;;;6.23;5.77;;;32.30;1.00;;;;;;2614068;54;20132;-76
2022/06/30 12:23:05;;;;;;;5.87;5.50;;;32.80;1.00;;;;;;2614036;54;20182;-75
2022/06/30 12:28:56;;;;;;;8.07;6.10;;;33.50;1.00;;;;;;2613918;54;20705;-75
2022/06/30 12:34:58;;;;;;;6.57;6.07;;;34.00;1.00;;;;;;2613848;54;20900;-76
2022/06/30 12:40:46;;;;;;;6.43;5.93;;;34.00;1.00;;;;;;2613456;54;20374;-75
2022/06/30 12:49:55;;;;;;;6.43;5.83;;;34.40;1.00;;;;;;2614876;54;20466;-75
2022/06/30 12:55:58;;;;;;;7.23;6.67;;;33.60;1.00;;;;;;2614821;54;20142;-75
2022/06/30 13:01:53;;;;;;;6.10;5.70;;;34.10;1.00;;;;;;2614814;54;20407;-76
2022/06/30 13:07:41;;;;;;;6.43;5.93;;;34.60;1.00;;;;;;2614795;39;20825;-75
2022/06/30 13:13:28;;;;;;;7.07;6.37;;;34.50;1.00;;;;;;2614563;54;20138;-76
2022/06/30 13:19:17;;;;;;;7.80;6.10;;;32.30;1.00;;;;;;2614212;54;20122;-75
2022/06/30 13:25:05;;;;;;;9.80;6.40;;;33.50;1.00;;;;;;2614618;54;20912;-76
2022/06/30 13:30:53;;;;;;;7.03;6.63;;;35.00;1.00;;;;;;2608000;54;20395;-76
2022/06/30 13:36:42;;;;;;;7.67;6.30;;;34.30;1.00;;;;;;2614259;54;20130;-75
2022/06/30 13:42:29;;;;;;;6.93;6.33;;;35.60;1.00;;;;;;2614005;54;20414;-75
2022/06/30 13:48:28;;;;;;;7.00;6.13;;;35.20;1.00;;;;;;2613192;54;20283;-75
2022/06/30 13:54:15;;;;;;;7.17;6.57;;;34.80;1.00;;;;;;2613966;39;20630;-75
2022/06/30 14:00:05;;;;;;;6.43;5.93;;;35.40;1.00;;;;;;2613081;54;20224;-74
2022/06/30 14:05:53;;;;;;;6.97;6.50;;;35.80;1.00;;;;;;2613569;54;21033;-75
2022/06/30 14:15:02;;;;;;;6.77;6.27;;;34.00;1.00;;;;;;2614068;54;20511;-75
2022/06/30 14:20:50;;;;;;;9.33;7.33;;;33.10;1.00;;;;;;2613292;54;20407;-76
2022/06/30 14:26:38;;;;;;;6.70;6.07;;;33.20;1.00;;;;;;2615385;54;20915;-75
2022/06/30 14:32:25;;;;;;;7.83;6.80;;;34.00;1.00;;;;;;2615540;39;20781;-76
2022/06/30 14:38:14;;;;;;;9.53;6.73;;;33.80;1.00;;;;;;2615564;54;20127;-75
2022/06/30 14:44:01;;;;;;;7.57;7.07;;;34.40;1.00;;;;;;2614970;54;20394;-75
2022/06/30 14:53:11;;;;;;;7.33;6.93;;;34.00;1.00;;;;;;2615534;54;20495;-75
2022/06/30 14:58:59;;;;;;;7.43;6.73;;;34.10;1.00;;;;;;2614369;54;20182;-76
2022/06/30 15:04:47;;;;;;;7.23;6.63;;;34.90;1.00;;;;;;2615531;54;20218;-75
2022/06/30 15:10:35;;;;;;;7.57;7.07;;;35.20;1.00;;;;;;2615588;46;20130;-75
2022/06/30 15:16:22;;;;;;;9.03;8.17;;;34.80;1.00;;;;;;2614937;54;20179;-75
2022/06/30 15:28:17;;;;;;;7.33;6.87;;;33.60;1.00;;;;;;2614552;54;20394;-75
2022/06/30 15:34:06;;;;;;;7.30;6.60;;;33.60;1.00;;;;;;2615497;39;20543;-75
2022/06/30 15:39:54;;;;;;;7.57;7.07;;;34.00;1.00;;;;;;2614786;54;20419;-77
2022/06/30 15:45:44;;;;;;;8.43;7.77;;;34.30;1.00;;;;;;2615159;54;20154;-75
2022/06/30 15:51:45;;;;;;;7.90;7.10;;;33.70;1.00;;;;;;2612454;54;20456;-76
2022/06/30 15:57:34;;;;;;;7.50;6.90;;;34.00;1.00;;;;;;2613355;54;20640;-75
2022/06/30 16:03:21;;;;;;;7.07;6.67;;;34.70;1.00;;;;;;2613348;54;20371;-77
2022/06/30 16:09:09;;;;;;;8.63;7.80;;;34.70;1.00;;;;;;2610579;54;20146;-75
2022/06/30 16:14:59;;;;;;;8.37;7.67;;;33.90;1.00;;;;;;2615948;54;20391;-75
2022/06/30 16:20:47;;;;;;;8.57;7.97;;;32.80;1.00;;;;;;2613163;54;20390;-75
2022/06/30 16:26:34;;;;;;;8.73;7.90;;;31.80;1.00;;;;;;2615834;54;20136;-74
2022/06/30 16:32:22;;;;;;;9.10;8.30;;;31.50;1.00;;;;;;2614700;46;20161;-75
2022/06/30 16:38:09;;;;;;;8.60;8.00;;;31.20;1.00;;;;;;2615419;54;20183;-75
2022/06/30 16:43:59;;;;;;;8.90;8.20;;;30.90;1.00;;;;;;2613379;39;20569;-75
2022/06/30 17:00:00;;;;;;;12.83;9.77;;;30.20;1.00;;;;;;2615258;54;20405;-75
2022/06/30 17:05:47;;;;;;;9.03;8.53;;;30.20;1.00;;;;;;2615784;54;20431;-78
2022/06/30 17:11:34;;;;;;;9.10;8.50;;;30.10;1.00;;;;;;2615096;54;20263;-78
2022/06/30 17:17:21;;;;;;;10.50;7.47;;;29.80;1.00;;;;;;2612311;54;20342;-76
2022/06/30 17:23:08;;;;;;;6.70;5.27;;;27.00;1.00;;;;;;2615239;54;20132;-76
2022/06/30 17:28:56;;;;;;;828.53;210.87;;;23.60;92.80;;;;;;2613702;54;20171;-74
2022/06/30 17:34:43;;;;;;;6.33;4.40;;;19.30;99.90;;;;;;2615373;54;20925;-74
2022/06/30 17:40:31;;;;;;;8.43;6.13;;;18.90;99.90;;;;;;2615112;54;20128;-74
2022/06/30 17:46:18;;;;;;;8.50;7.20;;;18.90;99.90;;;;;;2614423;54;20149;-73
2022/06/30 17:55:31;;;;;;;14.97;13.67;;;19.00;99.90;;;;;;2614488;54;21043;-74
2022/06/30 18:01:19;;;;;;;19.73;18.07;;;18.90;99.90;;;;;;2615377;54;20425;-73
2022/06/30 18:13:13;;;;;;;25.60;22.90;;;18.80;99.90;;;;;;2615102;54;20405;-74
2022/06/30 18:19:01;;;;;;;19.57;17.30;;;18.50;99.90;;;;;;2614129;54;20156;-74
2022/06/30 18:24:48;;;;;;;18.60;15.23;;;17.80;99.90;;;;;;2615754;54;20120;-72
2022/06/30 18:30:37;;;;;;;27.70;24.87;;;17.40;99.90;;;;;;2614609;54;20644;-75
2022/06/30 18:36:26;;;;;;;24.10;21.70;;;17.20;99.90;;;;;;2614290;54;20401;-74
2022/06/30 18:42:14;;;;;;;17.47;15.93;;;17.10;99.90;;;;;;2613747;54;20417;-74
2022/06/30 18:48:02;;;;;;;18.17;16.27;;;16.90;99.90;;;;;;2614556;54;20131;-73
2022/06/30 18:54:04;;;;;;;20.60;18.23;;;16.80;99.90;;;;;;2614410;54;20976;-75
2022/06/30 18:59:51;;;;;;;17.50;15.77;;;16.60;99.90;;;;;;2613893;54;20397;-73
2022/06/30 19:05:38;;;;;;;13.67;12.47;;;16.50;99.90;;;;;;2613793;54;20181;-72
2022/06/30 19:11:25;;;;;;;12.33;11.03;;;16.10;99.90;;;;;;2613116;54;20263;-74
2022/06/30 19:17:13;;;;;;;10.53;9.43;;;16.00;99.90;;;;;;2614322;54;20161;-74
2022/06/30 19:23:00;;;;;;;12.70;8.23;;;15.80;99.90;;;;;;2613710;54;20128;-73
2022/06/30 19:28:48;;;;;;;10.70;6.77;;;15.60;99.90;;;;;;2615443;39;20528;-73
2022/06/30 19:34:35;;;;;;;7.03;6.33;;;15.40;99.90;;;;;;2615645;54;20381;-75
2022/06/30 19:40:23;;;;;;;8.70;7.90;;;15.40;99.90;;;;;;2616035;39;20690;-73
2022/06/30 19:46:11;;;;;;;10.57;9.20;;;15.40;99.90;;;;;;2615882;54;20131;-73
2022/06/30 20:02:15;;;;;;;9.57;8.33;;;15.30;99.90;;;;;;2612235;54;21099;-75
2022/06/30 20:14:08;;;;;;;7.90;7.20;;;15.40;99.90;;;;;;2613350;54;20372;-76
2022/06/30 20:19:55;;;;;;;9.83;7.13;;;15.30;99.90;;;;;;2613533;54;20399;-75
2022/06/30 20:25:43;;;;;;;7.60;6.83;;;15.30;99.90;;;;;;2613036;54;20151;-76
2022/06/30 20:28:46;;;;;;;6.90;6.23;;;15.20;99.90;;;;;;2613094;54;20416;-74
2022/06/30 20:31:12;;;;;;;8.20;7.23;;;15.10;99.90;;;;;;2613747;54;20483;-75
2022/06/30 20:37:00;;;;;;;9.87;6.87;;;15.20;99.90;;;;;;2614314;54;20401;-77
2022/06/30 20:42:48;;;;;;;7.20;6.60;;;15.20;99.90;;;;;;2614255;54;20690;-75
2022/06/30 20:58:04;;;;;;;6.40;5.80;;;15.30;99.90;;;;;;2614561;54;20424;-74
2022/06/30 21:03:52;;;;;;;6.40;4.87;;;15.40;99.90;;;;;;2614420;54;20152;-75
2022/06/30 21:09:40;;;;;;;6.33;5.33;;;15.30;99.90;;;;;;2614589;54;20251;-76
2022/06/30 21:15:28;;;;;;;6.07;5.47;;;15.20;99.90;;;;;;2615329;39;20754;-74
2022/06/30 21:21:17;;;;;;;5.73;5.23;;;15.20;99.90;;;;;;2614187;54;20136;-75
2022/06/30 21:27:05;;;;;;;9.20;5.73;;;15.10;99.90;;;;;;2613910;54;20384;-75
2022/06/30 21:32:52;;;;;;;6.00;5.40;;;15.10;99.90;;;;;;2614746;54;20114;-74
2022/06/30 21:38:41;;;;;;;6.77;6.13;;;15.10;99.90;;;;;;2613269;54;20151;-75
2022/06/30 21:44:29;;;;;;;6.50;5.63;;;15.10;99.90;;;;;;2613908;54;20396;-75
2022/06/30 21:50:17;;;;;;;9.07;5.57;;;15.10;99.90;;;;;;2614017;54;20152;-76
2022/06/30 21:56:20;;;;;;;5.73;5.23;;;15.30;99.90;;;;;;2613121;54;20437;-76
2022/06/30 22:02:08;;;;;;;9.23;7.20;;;15.10;99.90;;;;;;2612938;39;20588;-75
2022/06/30 22:07:55;;;;;;;10.33;9.33;;;15.20;99.90;;;;;;2613476;54;20136;-77
2022/06/30 22:13:42;;;;;;;14.90;13.30;;;15.20;99.90;;;;;;2613145;54;20269;-78
2022/06/30 22:19:29;;;;;;;16.40;14.17;;;15.30;99.90;;;;;;2613869;39;20642;-74
2022/06/30 22:28:38;;;;;;;16.10;14.03;;;15.10;99.90;;;;;;2610039;54;20424;-75
2022/06/30 22:34:26;;;;;;;19.53;12.90;;;15.10;99.90;;;;;;2615051;54;20169;-75
2022/06/30 22:40:14;;;;;;;13.53;11.37;;;15.10;99.90;;;;;;2614766;39;20669;-74
2022/06/30 22:46:02;;;;;;;15.10;12.13;;;15.10;99.90;;;;;;2613712;54;20144;-76
2022/06/30 22:51:50;;;;;;;11.73;8.37;;;15.10;99.90;;;;;;2611914;54;20166;-77
2022/06/30 22:57:38;;;;;;;10.17;7.40;;;15.00;99.90;;;;;;2615535;54;20119;-75
2022/06/30 23:03:25;;;;;;;7.47;6.73;;;14.90;99.90;;;;;;2613069;54;20133;-74
2022/06/30 23:09:13;;;;;;;6.77;6.10;;;14.90;99.90;;;;;;2614792;54;20158;-73
2022/06/30 23:15:03;;;;;;;7.43;6.30;;;14.80;99.90;;;;;;2614589;54;20258;-74
2022/06/30 23:20:51;;;;;;;7.90;7.10;;;14.80;99.90;;;;;;2613549;54;20407;-76
2022/06/30 23:26:38;;;;;;;8.00;6.30;;;14.80;99.90;;;;;;2615481;39;20519;-75
2022/06/30 23:32:26;;;;;;;7.37;6.10;;;14.80;99.90;;;;;;2613541;54;20392;-75
2022/06/30 23:38:14;;;;;;;7.30;6.50;;;14.90;99.90;;;;;;2614823;54;20162;-75
2022/06/30 23:44:02;;;;;;;8.10;7.27;;;14.90;99.90;;;;;;2613573;54;20127;-75
2022/06/30 23:49:50;;;;;;;9.20;8.00;;;14.80;99.90;;;;;;2614766;39;20520;-76
2022/06/30 23:55:38;;;;;;;12.20;8.03;;;14.90;99.90;;;;;;2613442;54;20212;-75
